Flight Track Log - Related Links

Times and Time Zones

All times are in EDT time to prevent confusion due to time zone crossing. See the N682RW flight status page for this flight to view local times or setup timezone preferences in your user account.

Time Position Orientation Groundspeed Altitude Reporting Facility
EDT Latitude Longitude Course Direction KTS MPH feet Rate Location/Type
Thu 07:13:30 PM 42.1869 -83.3603 224° Southwest 192 221 1,100  Level Cleveland Center
Thu 07:14:49 PM 42.1267 -83.4389 224° Southwest 257 296 4,200 2,614 Climbing Cleveland Center
Thu 07:15:50 PM 42.1036 -83.5247 250° West 271 312 7,200 2,741 Climbing Cleveland Center
Thu 07:16:45 PM 42.1433 -83.6022 305° West 282 325 9,500 1,891 Climbing Cleveland Center
Thu 07:17:22 PM 42.1650 -83.6481 303° West 306 352 10,100 1,175 Climbing Cleveland Center
Thu 07:18:22 PM 42.2206 -83.7544 305° West 364 419 11,400 2,050 Climbing Cleveland Center
Thu 07:19:22 PM 42.2736 -83.8667 303° West 364 419 14,200 2,500 Climbing Cleveland Center
Thu 07:20:22 PM 42.3267 -83.9817 302° West 364 419 16,400 2,200 Climbing Cleveland Center
Thu 07:21:22 PM 42.3814 -84.0969 303° West 364 419 18,600 1,500 Climbing Cleveland Center
Thu 07:22:22 PM 42.4275 -84.2261 296° West 376 433 19,400 1,200 Climbing Cleveland Center
Thu 07:23:22 PM 42.4314 -84.3672 272° West 368 423 21,000 1,600 Climbing Cleveland Center
Thu 07:24:22 PM 42.4344 -84.5194 272° West 383 441 22,600 1,632 Climbing Cleveland Center
Thu 07:25:16 PM 42.4403 -84.6481 274° West 401 461 24,100 1,448 Climbing Chicago Center
Thu 07:26:18 PM 42.4436 -84.8042 272° West 412 474 25,400 1,306 Climbing Chicago Center
Thu 07:27:20 PM 42.4481 -84.9964 272° West 423 487 26,800 1,306 Climbing Chicago Center
Thu 07:28:22 PM 42.4508 -85.1617 271° West 435 501 28,100 1,016 Climbing Chicago Center
Thu 07:29:24 PM 42.4544 -85.3292 272° West 442 509 28,900 1,306 Climbing Chicago Center
Thu 07:30:26 PM 42.4569 -85.4986 271° West 448 516 30,800 1,355 Climbing Chicago Center
Thu 07:31:28 PM 42.4600 -85.6617 272° West 437 503 31,700 581 Climbing Chicago Center
Thu 07:32:30 PM 42.4619 -85.8308 271° West 444 511 32,000 145 Climbing Chicago Center
Thu 07:33:32 PM 42.4636 -86.0036 271° West 454 522 32,000  Level Chicago Center
Thu 07:34:34 PM 42.4306 -86.1994 257° West 452 520 32,000  Level Chicago Center
Thu 07:35:37 PM 42.3761 -86.3550 245° Southwest 455 524 32,000  Level Chicago Center
Thu 07:36:39 PM 42.3217 -86.5069 244° Southwest 450 518 32,000  Level Chicago Center
Thu 07:37:41 PM 42.2625 -86.6733 244° Southwest 455 524 32,000  Level Chicago Center
Thu 07:38:43 PM 42.2083 -86.8289 245° Southwest 447 514 32,000  Level Chicago Center
Thu 07:39:45 PM 42.1547 -86.9786 244° Southwest 448 516 32,000  Level Chicago Center
Thu 07:40:47 PM 42.0986 -87.1250 243° Southwest 443 510 32,000  Level Chicago Center
Thu 07:41:49 PM 42.0450 -87.2769 245° Southwest 453 521 32,000  Level Chicago Center
Thu 07:42:51 PM 41.9783 -87.4550 243° Southwest 452 520 32,000  Level Chicago Center
Thu 07:43:53 PM 41.9233 -87.6036 244° Southwest 451 519 32,000  Level Chicago Center
Thu 07:44:55 PM 41.8683 -87.7506 243° Southwest 446 513 32,000  Level Chicago Center
Thu 07:45:57 PM 41.8144 -87.8969 244° Southwest 445 512 32,000  Level Chicago Center
Thu 07:47:00 PM 41.7594 -88.0406 243° Southwest 441 507 32,000  Level Chicago Center
Thu 07:48:02 PM 41.6942 -88.2147 243° Southwest 443 510 32,000  Level Chicago Center
Thu 07:49:04 PM 41.6397 -88.3594 243° Southwest 444 511 32,000  Level Chicago Center
Thu 07:50:06 PM 41.5833 -88.5036 242° Southwest 446 513 32,000  Level Chicago Center
Thu 07:51:08 PM 41.5281 -88.6478 243° Southwest 444 511 32,000  Level Chicago Center
Thu 07:52:10 PM 41.4611 -88.8206 243° Southwest 442 509 32,000  Level Chicago Center
Thu 07:53:12 PM 41.4033 -88.9650 242° Southwest 446 513 32,000  Level Chicago Center
Thu 07:54:14 PM 41.3472 -89.1103 243° Southwest 445 512 32,000  Level Chicago Center
Thu 07:55:16 PM 41.2853 -89.2714 243° Southwest 443 510 32,000  Level Chicago Center
Thu 07:56:18 PM 41.2289 -89.4139 242° Southwest 440 506 32,000  Level Chicago Center
Thu 07:57:20 PM 41.1717 -89.5569 242° Southwest 440 506 32,000  Level Chicago Center
Thu 07:58:23 PM 41.1228 -89.7036 246° West 439 505 32,000  Level Chicago Center
Thu 07:59:25 PM 41.0747 -89.8531 247° West 443 510 32,000  Level Chicago Center
Thu 08:00:27 PM 41.0169 -90.0308 247° West 442 509 32,000  Level Chicago Center
Thu 08:01:29 PM 40.9636 -90.1939 247° West 448 516 32,000  Level Chicago Center
Thu 08:02:31 PM 40.9178 -90.3317 246° West 449 517 32,000  Level Chicago Center
Thu 08:03:33 PM 40.8672 -90.4808 246° West 448 516 32,000  Level Chicago Center
Thu 08:04:35 PM 40.8172 -90.6300 246° West 448 516 32,000  Level Chicago Center
Thu 08:05:37 PM 40.7567 -90.8106 246° West 449 517 32,000  Level Chicago Center
Thu 08:06:39 PM 40.7056 -90.9603 246° West 449 517 32,000  Level Chicago Center
Thu 08:07:41 PM 40.6547 -91.1083 246° West 445 512 32,000  Level Chicago Center
Thu 08:08:43 PM 40.6039 -91.2569 246° West 446 513 32,000  Level Chicago Center
Thu 08:09:45 PM 40.5461 -91.4236 246° West 449 517 32,000  Level Chicago Center
Thu 08:10:47 PM 40.4942 -91.5711 245° Southwest 449 517 32,000  Level Chicago Center
Thu 08:11:50 PM 40.4403 -91.7183 244° Southwest 450 518 32,000  Level Chicago Center
Thu 08:12:52 PM 40.3875 -91.8644 245° Southwest 447 514 32,000 -581 Level Chicago Center
Thu 08:13:54 PM 40.3231 -92.0406 244° Southwest 449 517 30,800 -1,065 Descending Chicago Center
Thu 08:14:56 PM 40.2689 -92.1867 244° Southwest 449 517 29,800 -1,016 Descending Chicago Center
Thu 08:15:58 PM 40.2150 -92.3350 245° Southwest 451 519 28,700 -1,306 Descending Chicago Center
Thu 08:17:00 PM 40.1606 -92.4803 244° Southwest 440 506 27,100 -1,645 Descending Chicago Center
Thu 08:18:02 PM 40.1064 -92.6242 244° Southwest 436 502 25,300 -1,645 Descending Chicago Center
Thu 08:19:04 PM 40.0558 -92.7631 245° Southwest 426 490 23,700 -1,645 Descending Chicago Center
Thu 08:20:06 PM 40.0058 -92.8964 244° Southwest 414 476 21,900 -2,032 Descending Chicago Center
Thu 08:21:08 PM 39.9453 -93.0544 243° Southwest 409 471 19,500 -2,032 Descending Chicago Center
Thu 08:22:10 PM 39.8969 -93.1806 243° Southwest 398 458 17,700 -1,824 Descending Chicago Center
Thu 08:23:13 PM 39.8506 -93.3067 244° Southwest 390 449 15,700 -1,680 Descending Chicago Center
Thu 08:24:15 PM 39.8039 -93.4256 243° Southwest 380 437 14,200 -1,176 Descending Chicago Center
Thu 08:25:41 PM 39.7408 -93.5911 244° Southwest 371 427 12,800 -846 Descending Kansas City Center
Thu 08:26:44 PM 39.6892 -93.7303 244° Southwest 361 415 12,100 -488 Descending Kansas City Center
Thu 08:27:44 PM 39.6431 -93.8386 241° Southwest 357 411 11,800 -726 Descending Kansas City Center
Thu 08:28:48 PM 39.5769 -93.9478 232° Southwest 341 392 10,600 -927 Descending Kansas City Center
Thu 08:29:47 PM 39.5297 -94.0297 233° Southwest 292 336 9,900 -1,024 Descending Kansas City Center
Thu 08:30:51 PM 39.4847 -94.1081 233° Southwest 280 322 8,500 -1,571 Descending Kansas City Center
Thu 08:31:53 PM 39.4342 -94.1967 234° Southwest 276 318 6,600 -1,452 Descending Kansas City Center
Thu 08:33:57 PM 39.3406 -94.3586 233° Southwest 267 307 4,000 -898 Descending Kansas City Center
Thu 08:35:00 PM 39.2994 -94.4306 234° Southwest 262 302 3,800 -435 Descending Kansas City Center
Thu 08:36:01 PM 39.2567 -94.5047 233° Southwest 223 257 3,100 -532 Descending Kansas City Center
Thu 08:37:04 PM 39.2272 -94.5544 233° Southwest 185 213 2,700 -726 Descending Kansas City Center
Thu 08:38:05 PM 39.1772 -94.5764 199° South 169 194 1,600 -768 Descending Kansas City Center
Thu 08:39:09 PM 39.1358 -94.5894 194° South 147 169 1,100 -469 Descending Kansas City Center
Thu 08:41:00 PM 39.1167 -94.5833 180° South  Level FlightAware Approximate

Login

Don't have an account? Register now (free) for customized features, flight alerts, and more!